createdAt,value
2018-10-06T00:01:15.769Z,8.90
2018-10-06T00:03:47.341Z,9.97
2018-10-06T00:06:18.995Z,10.50
2018-10-06T00:08:50.611Z,9.67
2018-10-06T00:11:22.321Z,10.43
2018-10-06T00:13:53.909Z,9.40
2018-10-06T00:16:25.660Z,10.80
2018-10-06T00:18:57.591Z,10.53
2018-10-06T00:21:30.224Z,9.77
2018-10-06T00:24:02.483Z,10.03
2018-10-06T00:26:34.182Z,9.40
2018-10-06T00:29:05.867Z,8.90
2018-10-06T00:31:37.782Z,8.53
2018-10-06T00:34:09.630Z,8.10
2018-10-06T00:36:41.277Z,8.17
2018-10-06T00:39:13.072Z,8.90
2018-10-06T00:41:45.450Z,6.90
2018-10-06T00:44:17.199Z,6.30
2018-10-06T00:46:49.872Z,7.43
2018-10-06T00:49:22.170Z,7.80
2018-10-06T00:51:53.864Z,8.20
2018-10-06T00:54:25.794Z,7.00
2018-10-06T00:56:57.662Z,7.03
2018-10-06T00:59:29.668Z,6.97
2018-10-06T01:02:01.528Z,6.50
2018-10-06T01:04:33.184Z,7.10
2018-10-06T01:07:04.855Z,6.87
2018-10-06T01:09:36.712Z,7.17
2018-10-06T01:12:08.321Z,7.00
2018-10-06T01:14:40.182Z,6.83
2018-10-06T01:17:11.572Z,7.13
2018-10-06T01:19:43.303Z,8.07
2018-10-06T01:22:15.782Z,7.23
2018-10-06T01:24:47.402Z,8.20
2018-10-06T01:27:19.269Z,7.90
2018-10-06T01:29:50.926Z,7.07
2018-10-06T01:32:22.652Z,8.93
2018-10-06T01:34:54.248Z,7.23
2018-10-06T01:37:25.980Z,7.20
2018-10-06T01:39:57.810Z,7.60
2018-10-06T01:42:29.394Z,7.60
2018-10-06T01:45:01.020Z,7.27
2018-10-06T01:47:32.632Z,8.40
2018-10-06T01:50:04.413Z,6.80
2018-10-06T01:52:36.312Z,7.33
2018-10-06T01:55:07.931Z,6.63
2018-10-06T01:57:39.580Z,7.27
2018-10-06T02:00:11.569Z,7.40
2018-10-06T02:02:43.172Z,5.90
2018-10-06T02:05:14.939Z,6.00
2018-10-06T02:07:46.504Z,6.40
2018-10-06T02:10:18.119Z,6.63
2018-10-06T02:12:50.140Z,6.67
2018-10-06T02:15:22.016Z,8.43
2018-10-06T02:17:54.640Z,8.10
2018-10-06T02:20:26.298Z,6.73
2018-10-06T02:22:57.994Z,7.93
2018-10-06T02:25:30.128Z,8.73
2018-10-06T02:28:02.021Z,8.60
2018-10-06T02:30:34.501Z,8.13
2018-10-06T02:33:06.201Z,11.50
2018-10-06T02:35:38.130Z,10.10
2018-10-06T02:38:10.338Z,10.30
2018-10-06T02:40:42.073Z,12.30
2018-10-06T02:43:13.994Z,11.87
2018-10-06T02:45:46.629Z,11.00
2018-10-06T02:48:18.258Z,11.53
2018-10-06T02:50:50.041Z,11.73
2018-10-06T02:53:22.511Z,10.83
2018-10-06T02:55:54.273Z,10.73
2018-10-06T02:58:26.201Z,10.60
2018-10-06T03:00:58.917Z,9.03
2018-10-06T03:03:30.470Z,11.10
2018-10-06T03:06:02.195Z,10.70
2018-10-06T03:08:34.045Z,10.93
2018-10-06T03:11:05.969Z,10.63
2018-10-06T03:13:37.510Z,10.60
2018-10-06T03:16:09.331Z,10.00
2018-10-06T03:18:41.163Z,11.10
2018-10-06T03:21:12.818Z,10.60
2018-10-06T03:23:44.533Z,9.77
2018-10-06T03:26:16.247Z,11.10
2018-10-06T03:28:48.765Z,11.13
2018-10-06T03:31:20.601Z,10.90
2018-10-06T03:33:52.428Z,11.83
2018-10-06T03:36:24.099Z,10.47
2018-10-06T03:38:56.109Z,10.80
2018-10-06T03:41:27.895Z,10.30
2018-10-06T03:43:59.432Z,10.00
2018-10-06T03:46:30.967Z,10.10
2018-10-06T03:49:02.679Z,11.40
2018-10-06T03:51:34.825Z,12.13
2018-10-06T03:54:07.002Z,10.70
2018-10-06T03:56:38.859Z,10.73
2018-10-06T03:59:11.533Z,10.13
2018-10-06T04:01:43.286Z,10.33
2018-10-06T04:04:15.167Z,10.70
2018-10-06T04:06:46.865Z,10.80
2018-10-06T04:09:18.773Z,11.00
2018-10-06T04:11:51.192Z,10.27
2018-10-06T04:14:22.722Z,9.87
2018-10-06T04:16:54.475Z,10.40
2018-10-06T04:19:27.286Z,10.83
2018-10-06T04:21:59.563Z,10.83
2018-10-06T04:24:31.215Z,9.67
2018-10-06T04:27:03.163Z,10.90
2018-10-06T04:29:35.762Z,11.53
2018-10-06T04:32:08.320Z,11.80
2018-10-06T04:34:39.866Z,10.47
2018-10-06T04:37:11.618Z,11.50
2018-10-06T04:39:43.900Z,11.30
2018-10-06T04:42:15.586Z,11.53
2018-10-06T04:44:47.229Z,10.80
2018-10-06T04:47:19.151Z,12.30
2018-10-06T04:49:50.841Z,11.40
2018-10-06T04:52:22.540Z,10.93
2018-10-06T04:54:54.855Z,11.57
2018-10-06T04:57:26.537Z,12.90
2018-10-06T04:59:58.602Z,17.67
2018-10-06T05:02:30.388Z,17.03
2018-10-06T05:05:02.237Z,16.27
2018-10-06T05:07:33.768Z,17.80
2018-10-06T05:10:05.478Z,18.50
2018-10-06T05:12:37.206Z,19.20
2018-10-06T05:15:08.850Z,19.10
2018-10-06T05:17:40.552Z,18.70
2018-10-06T05:20:12.489Z,19.87
2018-10-06T05:22:44.070Z,17.87
2018-10-06T05:25:15.810Z,18.60
2018-10-06T05:27:48.124Z,17.50
2018-10-06T05:30:19.884Z,18.80
2018-10-06T05:32:51.901Z,20.40
2018-10-06T05:35:23.788Z,19.10
2018-10-06T05:37:58.859Z,19.47
2018-10-06T05:40:30.535Z,20.23
2018-10-06T05:43:02.241Z,18.30
2018-10-06T05:45:34.816Z,18.50
2018-10-06T05:48:06.488Z,19.97
2018-10-06T05:50:38.281Z,19.20
2018-10-06T05:53:09.868Z,16.90
2018-10-06T05:55:41.801Z,19.10
2018-10-06T05:58:13.392Z,17.87
2018-10-06T06:01:16.132Z,18.53
2018-10-06T06:03:47.822Z,17.73
2018-10-06T06:06:19.404Z,19.00
2018-10-06T06:08:51.105Z,18.43
2018-10-06T06:11:23.258Z,17.37
2018-10-06T06:13:55.207Z,15.90
2018-10-06T06:16:27.084Z,17.20
2018-10-06T06:18:59.126Z,16.87
2018-10-06T06:21:30.851Z,15.63
2018-10-06T06:24:02.699Z,15.50
2018-10-06T06:26:34.802Z,14.63
2018-10-06T06:29:06.527Z,16.60
2018-10-06T06:31:38.373Z,16.03
2018-10-06T06:34:10.216Z,15.47
2018-10-06T06:36:42.948Z,14.27
2018-10-06T06:39:14.721Z,13.90
2018-10-06T06:41:46.370Z,14.80
2018-10-06T06:44:18.324Z,14.10
2018-10-06T06:46:50.003Z,13.03
2018-10-06T06:49:21.872Z,13.57
2018-10-06T06:51:53.816Z,13.73
2018-10-06T06:54:25.457Z,13.00
2018-10-06T06:56:57.189Z,12.33
2018-10-06T06:59:29.173Z,13.50
2018-10-06T07:02:00.978Z,13.93
2018-10-06T07:04:32.502Z,12.90
2018-10-06T07:07:04.407Z,13.30
2018-10-06T07:09:36.081Z,11.97
2018-10-06T07:12:07.861Z,11.83
2018-10-06T07:14:40.845Z,11.40
2018-10-06T07:17:12.707Z,12.13
2018-10-06T07:19:45.993Z,11.33
2018-10-06T07:22:20.110Z,11.23
2018-10-06T07:24:54.590Z,11.13
2018-10-06T07:27:27.191Z,9.33
2018-10-06T07:29:58.836Z,11.07
2018-10-06T07:32:30.773Z,10.73
2018-10-06T07:35:03.711Z,10.10
2018-10-06T07:37:36.783Z,10.70
2018-10-06T07:40:09.290Z,11.03
2018-10-06T07:42:42.169Z,10.60
2018-10-06T07:45:17.478Z,13.53
2018-10-06T07:47:51.923Z,12.80
2018-10-06T07:50:24.865Z,14.33
2018-10-06T07:52:58.498Z,11.80
2018-10-06T07:55:31.754Z,12.20
2018-10-06T07:58:05.364Z,13.27
2018-10-06T08:00:37.923Z,13.43
2018-10-06T08:03:09.857Z,11.27
2018-10-06T08:05:42.552Z,14.07
2018-10-06T08:08:14.526Z,12.90
2018-10-06T08:10:47.255Z,12.63
2018-10-06T08:13:18.831Z,11.73
2018-10-06T08:15:50.370Z,12.13
2018-10-06T08:18:22.106Z,12.40
2018-10-06T08:20:53.977Z,14.13
2018-10-06T08:23:26.420Z,14.23
2018-10-06T08:25:58.046Z,16.10
2018-10-06T08:28:29.946Z,15.30
2018-10-06T08:31:01.804Z,16.00
2018-10-06T08:33:33.762Z,16.93
2018-10-06T08:36:05.632Z,13.90
2018-10-06T08:38:37.544Z,12.77
2018-10-06T08:41:09.571Z,12.40
2018-10-06T08:43:42.142Z,14.87
2018-10-06T08:46:13.835Z,14.43
2018-10-06T08:48:45.658Z,14.17
2018-10-06T08:51:17.524Z,14.10
2018-10-06T08:53:49.243Z,14.57
2018-10-06T08:56:21.250Z,13.87
2018-10-06T08:58:54.153Z,13.77
2018-10-06T09:01:26.118Z,12.57
2018-10-06T09:03:58.602Z,13.30
2018-10-06T09:06:31.245Z,15.00
2018-10-06T09:09:03.017Z,14.73
2018-10-06T09:11:34.828Z,15.43
2018-10-06T09:14:06.617Z,15.00
2018-10-06T09:16:38.652Z,15.83
2018-10-06T09:19:10.283Z,16.90
2018-10-06T09:21:42.029Z,15.90
2018-10-06T09:24:13.922Z,15.47
2018-10-06T09:26:50.246Z,15.50
2018-10-06T09:29:27.125Z,16.27
2018-10-06T09:32:00.308Z,17.93
2018-10-06T09:34:32.295Z,17.30
2018-10-06T09:37:04.633Z,15.57
2018-10-06T09:39:38.109Z,19.00
2018-10-06T09:42:10.234Z,18.17
2018-10-06T09:44:42.155Z,17.10
2018-10-06T09:47:13.993Z,17.00
2018-10-06T09:49:45.734Z,15.20
2018-10-06T09:52:17.778Z,17.80
2018-10-06T09:54:49.676Z,16.70
2018-10-06T09:57:21.618Z,18.57
2018-10-06T09:59:53.374Z,17.83
2018-10-06T10:02:30.079Z,17.80
2018-10-06T10:06:09.891Z,18.37
2018-10-06T10:08:41.648Z,16.23
2018-10-06T10:11:18.457Z,19.70
2018-10-06T10:13:51.974Z,21.33
2018-10-06T10:16:23.818Z,22.43
2018-10-06T10:18:55.731Z,21.90
2018-10-06T10:21:27.955Z,21.83
2018-10-06T10:23:59.971Z,20.20
2018-10-06T10:26:32.055Z,21.70
2018-10-06T10:29:03.929Z,23.10
2018-10-06T10:31:36.221Z,22.17
2018-10-06T10:34:07.955Z,37.30
2018-10-06T10:36:39.791Z,53.27
2018-10-06T10:39:12.452Z,87.23
2018-10-06T10:41:44.937Z,89.40
2018-10-06T10:44:16.855Z,90.90
2018-10-06T10:46:48.934Z,102.93
2018-10-06T10:49:20.938Z,92.20
2018-10-06T10:51:52.826Z,88.03
2018-10-06T10:54:25.450Z,84.27
2018-10-06T10:56:57.685Z,82.30
2018-10-06T10:59:29.490Z,79.23
2018-10-06T11:02:01.350Z,69.77
2018-10-06T11:04:33.129Z,67.60
2018-10-06T11:07:05.203Z,62.00
2018-10-06T11:09:37.023Z,58.93
2018-10-06T11:12:09.748Z,213.87
2018-10-06T11:14:41.849Z,68.43
2018-10-06T11:17:13.597Z,97.20
2018-10-06T11:19:45.337Z,139.10
2018-10-06T11:22:17.051Z,130.63
2018-10-06T11:24:49.100Z,134.10
2018-10-06T11:27:21.067Z,134.67
2018-10-06T11:29:52.758Z,133.17
2018-10-06T11:32:24.677Z,168.27
2018-10-06T11:34:56.798Z,148.10
2018-10-06T11:37:28.701Z,139.13
2018-10-06T11:40:00.728Z,134.53
2018-10-06T11:42:32.547Z,130.83
2018-10-06T11:45:04.870Z,143.03
2018-10-06T11:47:37.290Z,134.97
2018-10-06T11:50:09.178Z,77.80
2018-10-06T11:52:40.755Z,89.30
2018-10-06T11:55:12.468Z,71.23
2018-10-06T11:57:45.083Z,72.43
2018-10-06T12:00:16.921Z,68.87
2018-10-06T12:02:48.777Z,41.03
2018-10-06T12:05:21.388Z,45.13
2018-10-06T12:07:53.216Z,50.23
2018-10-06T12:10:24.974Z,115.07
2018-10-06T12:12:57.593Z,130.97
2018-10-06T12:15:29.249Z,102.20
2018-10-06T12:18:01.149Z,161.63
2018-10-06T12:20:33.829Z,129.20
2018-10-06T12:23:06.242Z,120.93
2018-10-06T12:25:38.144Z,119.23
2018-10-06T12:28:10.559Z,105.07
2018-10-06T12:30:42.460Z,107.50
2018-10-06T12:33:14.251Z,108.10
2018-10-06T12:35:46.371Z,90.60
2018-10-06T12:38:18.228Z,95.50
2018-10-06T12:40:50.165Z,85.80
2018-10-06T12:43:21.878Z,79.33
2018-10-06T12:45:53.694Z,80.40
2018-10-06T12:48:25.626Z,74.57
2018-10-06T12:50:58.327Z,70.50
2018-10-06T12:53:30.662Z,63.23
2018-10-06T12:56:02.424Z,66.60
2018-10-06T12:58:34.355Z,64.80
2018-10-06T13:01:07.022Z,63.03
2018-10-06T13:03:38.680Z,60.80
2018-10-06T13:06:10.754Z,57.43
2018-10-06T13:08:42.614Z,54.27
2018-10-06T13:11:15.265Z,58.80
2018-10-06T13:13:46.836Z,57.53
2018-10-06T13:16:18.730Z,53.10
2018-10-06T13:18:50.583Z,54.30
2018-10-06T13:21:22.376Z,55.00
2018-10-06T13:23:54.264Z,52.43
2018-10-06T13:26:26.265Z,58.10
2018-10-06T13:28:58.426Z,57.70
2018-10-06T13:31:30.240Z,55.57
2018-10-06T13:34:02.151Z,53.70
2018-10-06T13:36:33.988Z,54.10
2018-10-06T13:39:06.808Z,55.57
2018-10-06T13:41:38.657Z,50.90
2018-10-06T13:44:10.607Z,51.97
2018-10-06T13:46:42.639Z,50.90
2018-10-06T13:49:14.733Z,190.83
2018-10-06T13:51:46.637Z,120.27
2018-10-06T13:54:18.587Z,133.43
2018-10-06T13:56:51.164Z,147.23
2018-10-06T13:59:22.956Z,157.30
2018-10-06T14:01:54.901Z,168.63
2018-10-06T14:04:26.946Z,177.87
2018-10-06T14:06:58.736Z,149.07
2018-10-06T14:09:30.821Z,160.63
2018-10-06T14:12:02.769Z,153.17
2018-10-06T14:14:34.565Z,165.33
2018-10-06T14:17:20.987Z,129.80
2018-10-06T14:19:52.862Z,123.17
2018-10-06T14:22:24.792Z,107.93
2018-10-06T14:24:56.934Z,108.60
2018-10-06T14:27:28.681Z,108.83
2018-10-06T14:30:00.381Z,103.00
2018-10-06T14:32:32.499Z,103.90
2018-10-06T14:35:05.180Z,98.17
2018-10-06T14:37:36.828Z,89.30
2018-10-06T14:40:08.528Z,87.10
2018-10-06T14:42:40.160Z,78.43
2018-10-06T14:45:12.194Z,78.10
2018-10-06T14:47:44.090Z,72.60
2018-10-06T14:50:16.026Z,72.90
2018-10-06T14:52:48.007Z,71.93
2018-10-06T14:55:19.731Z,67.07
2018-10-06T14:57:51.435Z,63.37
2018-10-06T15:00:23.191Z,63.33
2018-10-06T15:02:55.146Z,64.93
2018-10-06T15:05:27.055Z,63.30
2018-10-06T15:07:59.671Z,57.77
2018-10-06T15:10:31.267Z,54.10
2018-10-06T15:13:03.315Z,57.77
2018-10-06T15:15:36.826Z,56.57
2018-10-06T15:18:09.564Z,54.87
2018-10-06T15:20:42.684Z,56.23
2018-10-06T15:23:17.652Z,52.77
2018-10-06T15:25:52.349Z,53.47
2018-10-06T15:28:26.062Z,50.80
2018-10-06T15:30:58.144Z,51.60
2018-10-06T15:33:29.926Z,48.70
2018-10-06T15:36:02.449Z,53.80
2018-10-06T15:38:34.395Z,48.00
2018-10-06T15:41:06.540Z,47.53
2018-10-06T15:43:38.390Z,48.23
2018-10-06T15:46:11.328Z,46.20
2018-10-06T15:48:45.013Z,47.03
2018-10-06T15:51:17.687Z,47.57
2018-10-06T15:53:49.708Z,44.57
2018-10-06T15:56:21.433Z,45.33
2018-10-06T15:58:53.268Z,44.60
2018-10-06T16:01:24.952Z,42.63
2018-10-06T16:03:57.226Z,42.13
2018-10-06T16:06:29.035Z,41.40
2018-10-06T16:09:00.893Z,44.50
2018-10-06T16:11:32.929Z,40.83
2018-10-06T16:14:04.835Z,43.77
2018-10-06T16:16:36.443Z,41.83
2018-10-06T16:19:08.145Z,39.93
2018-10-06T16:21:40.152Z,41.97
2018-10-06T16:24:12.340Z,42.13
2018-10-06T16:26:44.161Z,40.90
2018-10-06T16:29:15.852Z,39.77
2018-10-06T16:31:47.903Z,43.20
2018-10-06T16:34:19.759Z,42.57
2018-10-06T16:36:51.451Z,42.80
2018-10-06T16:39:23.138Z,44.43
2018-10-06T16:41:55.129Z,44.47
2018-10-06T16:44:26.913Z,44.37
2018-10-06T16:46:58.567Z,41.80
2018-10-06T16:49:30.498Z,45.53
2018-10-06T16:52:02.554Z,46.27
2018-10-06T16:54:34.622Z,42.83
2018-10-06T16:57:06.705Z,45.97
2018-10-06T16:59:38.782Z,46.97
2018-10-06T17:02:10.422Z,46.27
2018-10-06T17:04:42.371Z,46.20
2018-10-06T17:07:14.904Z,43.53
2018-10-06T17:09:46.562Z,43.60
2018-10-06T17:12:18.358Z,47.10
2018-10-06T17:14:50.367Z,44.63
2018-10-06T17:17:22.059Z,43.23
2018-10-06T17:19:53.795Z,40.33
2018-10-06T17:22:25.665Z,45.70
2018-10-06T17:24:57.549Z,41.37
2018-10-06T17:27:29.507Z,43.30
2018-10-06T17:30:01.755Z,44.53
2018-10-06T17:32:33.439Z,45.07
2018-10-06T17:35:05.644Z,43.60
2018-10-06T17:37:37.674Z,42.67
2018-10-06T17:40:09.647Z,41.53
2018-10-06T17:42:41.487Z,44.10
2018-10-06T17:45:13.400Z,44.70
2018-10-06T17:47:45.303Z,42.60
2018-10-06T17:50:17.327Z,45.93
2018-10-06T17:52:49.149Z,45.77
2018-10-06T17:55:20.735Z,41.40
2018-10-06T17:57:52.446Z,46.83
2018-10-06T18:00:24.608Z,45.60
2018-10-06T18:02:56.472Z,44.93
2018-10-06T18:05:28.704Z,44.00
2018-10-06T18:08:00.511Z,45.87
2018-10-06T18:10:32.868Z,44.23
2018-10-06T18:13:04.715Z,43.83
2018-10-06T18:15:36.331Z,45.93
2018-10-06T18:18:08.031Z,45.07
2018-10-06T18:20:40.759Z,44.37
2018-10-06T18:23:12.451Z,44.63
2018-10-06T18:25:44.157Z,44.60
2018-10-06T18:28:16.614Z,44.47
2018-10-06T18:30:48.413Z,43.87
2018-10-06T18:33:20.266Z,44.97
2018-10-06T18:35:52.208Z,44.63
2018-10-06T18:38:23.871Z,42.97
2018-10-06T18:40:55.730Z,45.00
2018-10-06T18:43:27.662Z,44.77
2018-10-06T18:45:59.735Z,45.33
2018-10-06T18:48:32.057Z,46.07
2018-10-06T18:51:03.985Z,46.07
2018-10-06T18:53:35.811Z,43.10
2018-10-06T18:56:07.778Z,43.57
2018-10-06T18:58:39.507Z,44.30
2018-10-06T19:01:11.713Z,48.80
2018-10-06T19:03:43.830Z,45.73
2018-10-06T19:06:15.767Z,44.60
2018-10-06T19:08:47.744Z,45.70
2018-10-06T19:11:19.499Z,44.40
2018-10-06T19:13:51.601Z,45.43
2018-10-06T19:16:23.535Z,46.50
2018-10-06T19:18:55.286Z,46.03
2018-10-06T19:21:27.913Z,44.40
2018-10-06T19:23:59.931Z,44.60
2018-10-06T19:26:31.851Z,45.90
2018-10-06T19:29:03.756Z,44.67
2018-10-06T19:31:35.482Z,46.57
2018-10-06T19:34:07.639Z,46.90
2018-10-06T19:36:39.404Z,47.23
2018-10-06T19:39:11.347Z,47.37
2018-10-06T19:41:43.060Z,43.07
2018-10-06T19:44:15.093Z,44.10
2018-10-06T19:46:46.929Z,46.27
2018-10-06T19:49:25.105Z,45.77
2018-10-06T19:52:02.310Z,45.07
2018-10-06T19:54:35.353Z,44.77
2018-10-06T19:57:07.995Z,44.83
2018-10-06T19:59:40.105Z,45.30
2018-10-06T20:02:12.247Z,45.10
2018-10-06T20:04:44.145Z,44.07
2018-10-06T20:07:16.318Z,43.13
2018-10-06T20:09:48.202Z,41.60
2018-10-06T20:12:20.383Z,41.10
2018-10-06T20:14:52.265Z,40.07
2018-10-06T20:17:23.843Z,39.83
2018-10-06T20:19:55.596Z,38.23
2018-10-06T20:22:27.493Z,35.30
2018-10-06T20:24:59.184Z,34.87
2018-10-06T20:27:30.827Z,31.83
2018-10-06T20:30:02.713Z,30.90
2018-10-06T20:32:34.601Z,28.10
2018-10-06T20:35:06.386Z,25.30
2018-10-06T20:37:38.270Z,21.90
2018-10-06T20:40:10.190Z,21.97
2018-10-06T20:42:42.224Z,22.50
2018-10-06T20:45:14.953Z,17.70
2018-10-06T20:47:47.562Z,17.53
2018-10-06T20:50:20.322Z,16.73
2018-10-06T20:52:52.819Z,15.03
2018-10-06T20:55:24.733Z,13.83
2018-10-06T20:57:56.472Z,11.77
2018-10-06T21:00:28.159Z,13.50
2018-10-06T21:02:59.782Z,12.00
2018-10-06T21:05:31.503Z,11.60
2018-10-06T21:08:04.121Z,11.17
2018-10-06T21:10:35.758Z,9.63
2018-10-06T21:13:07.590Z,8.67
2018-10-06T21:15:39.504Z,9.00
2018-10-06T21:18:12.279Z,10.17
2018-10-06T21:20:45.100Z,10.10
2018-10-06T21:23:16.984Z,7.80
2018-10-06T21:25:48.699Z,8.80
2018-10-06T21:28:20.351Z,7.37
2018-10-06T21:30:52.078Z,7.20
2018-10-06T21:33:24.673Z,5.40
2018-10-06T21:35:56.333Z,6.20
2018-10-06T21:38:28.270Z,6.00
2018-10-06T21:41:00.228Z,4.37
2018-10-06T21:43:32.141Z,4.67
2018-10-06T21:46:04.742Z,3.73
2018-10-06T21:48:36.407Z,4.20
2018-10-06T21:51:08.274Z,2.83
2018-10-06T21:53:40.127Z,3.00
2018-10-06T21:56:11.837Z,3.77
2018-10-06T21:58:43.703Z,2.63
2018-10-06T22:01:15.802Z,2.10
2018-10-06T22:03:47.612Z,3.10
2018-10-06T22:06:20.005Z,3.13
2018-10-06T22:08:55.736Z,3.50
2018-10-06T22:11:28.355Z,3.50
2018-10-06T22:14:00.183Z,3.47
2018-10-06T22:16:31.958Z,3.87
2018-10-06T22:19:03.681Z,3.37
2018-10-06T22:21:35.498Z,4.03
2018-10-06T22:24:07.340Z,3.30
2018-10-06T22:26:39.964Z,3.93
2018-10-06T22:29:11.638Z,3.30
2018-10-06T22:31:43.501Z,4.23
2018-10-06T22:34:15.254Z,3.27
2018-10-06T22:36:47.085Z,3.57
2018-10-06T22:39:18.943Z,3.40
2018-10-06T22:41:50.943Z,2.40
2018-10-06T22:44:22.564Z,2.30
2018-10-06T22:46:54.528Z,1.70
2018-10-06T22:49:26.570Z,1.87
2018-10-06T22:51:58.429Z,1.57
2018-10-06T22:54:30.189Z,1.20
2018-10-06T22:57:02.209Z,0.97
2018-10-06T22:59:33.773Z,1.00
2018-10-06T23:02:05.672Z,0.83
2018-10-06T23:04:37.348Z,1.00
2018-10-06T23:07:09.035Z,1.67
2018-10-06T23:09:40.882Z,0.73
2018-10-06T23:12:12.629Z,0.97
2018-10-06T23:14:44.341Z,1.10
2018-10-06T23:17:16.657Z,0.90
2018-10-06T23:19:48.533Z,1.20
2018-10-06T23:22:20.349Z,1.17
2018-10-06T23:24:52.046Z,1.40
2018-10-06T23:27:23.877Z,0.83
2018-10-06T23:29:56.502Z,1.50
2018-10-06T23:32:28.260Z,1.40
2018-10-06T23:35:00.085Z,2.83
2018-10-06T23:37:31.770Z,1.00
2018-10-06T23:40:03.547Z,1.17
2018-10-06T23:42:35.326Z,1.10
2018-10-06T23:45:07.296Z,0.90
2018-10-06T23:47:39.052Z,1.10
2018-10-06T23:50:10.812Z,1.13
2018-10-06T23:52:42.628Z,1.20
2018-10-06T23:55:15.212Z,1.17
2018-10-06T23:57:46.968Z,0.73
